createdAt,value
2022-10-12T00:01:55.968Z,101.80
2022-10-12T00:04:30.410Z,94.30
2022-10-12T00:07:05.165Z,99.00
2022-10-12T00:09:37.807Z,95.90
2022-10-12T00:12:10.508Z,95.00
2022-10-12T00:14:43.603Z,99.60
2022-10-12T00:17:16.218Z,116.40
2022-10-12T00:19:51.256Z,122.20
2022-10-12T00:22:23.217Z,106.60
2022-10-12T00:25:01.332Z,108.20
2022-10-12T00:27:35.120Z,111.90
2022-10-12T00:30:10.592Z,123.60
2022-10-12T00:32:42.547Z,114.90
2022-10-12T00:35:15.815Z,113.00
2022-10-12T00:37:50.395Z,108.50
2022-10-12T00:40:22.730Z,114.60
2022-10-12T00:42:55.433Z,115.30
2022-10-12T00:45:29.579Z,118.40
2022-10-12T00:48:03.227Z,113.30
2022-10-12T00:50:36.718Z,117.50
2022-10-12T00:53:13.135Z,125.30
2022-10-12T00:55:49.167Z,119.00
2022-10-12T00:58:21.394Z,112.50
2022-10-12T01:00:53.759Z,97.70
2022-10-12T01:03:28.147Z,101.50
2022-10-12T01:06:01.170Z,105.50
2022-10-12T01:08:34.557Z,116.80
2022-10-12T01:11:07.699Z,113.30
2022-10-12T01:13:39.802Z,120.50
2022-10-12T01:16:17.985Z,119.90
2022-10-12T01:18:54.690Z,118.70
2022-10-12T01:21:27.048Z,108.80
2022-10-12T01:24:31.909Z,111.20
2022-10-12T01:27:36.467Z,133.00
2022-10-12T01:30:14.263Z,131.70
2022-10-12T01:33:09.755Z,112.60
2022-10-12T01:35:47.574Z,104.70
2022-10-12T01:38:29.002Z,116.60
2022-10-12T01:41:04.386Z,114.80
2022-10-12T01:43:41.138Z,101.00
2022-10-12T01:46:53.428Z,101.70
2022-10-12T01:49:29.045Z,99.80
2022-10-12T01:52:18.012Z,100.20
2022-10-12T01:55:00.136Z,105.20
2022-10-12T01:57:37.289Z,96.30
2022-10-12T02:00:13.679Z,107.10
2022-10-12T02:02:52.058Z,118.40
2022-10-12T02:05:31.749Z,128.10
2022-10-12T02:08:07.155Z,122.00
2022-10-12T02:10:45.903Z,104.90
2022-10-12T02:13:19.961Z,96.10
2022-10-12T02:15:52.786Z,98.10
2022-10-12T02:18:28.801Z,94.40
2022-10-12T02:21:02.707Z,103.20
2022-10-12T02:23:37.731Z,114.90
2022-10-12T02:26:13.389Z,110.60
2022-10-12T02:28:47.042Z,103.10
2022-10-12T02:31:27.233Z,115.30
2022-10-12T02:34:05.006Z,107.20
2022-10-12T02:36:43.821Z,110.50
2022-10-12T02:39:21.207Z,108.80
2022-10-12T02:41:56.518Z,103.90
2022-10-12T02:44:32.308Z,104.20
2022-10-12T02:47:06.950Z,95.50
2022-10-12T02:49:39.507Z,95.60
2022-10-12T02:52:12.652Z,90.60
2022-10-12T02:54:48.225Z,91.20
2022-10-12T02:57:21.312Z,99.70
2022-10-12T02:59:57.295Z,86.60
2022-10-12T03:02:30.516Z,90.90
2022-10-12T03:05:04.389Z,89.20
2022-10-12T03:07:39.974Z,86.50
2022-10-12T03:10:16.214Z,85.30
2022-10-12T03:12:50.375Z,87.70
2022-10-12T03:15:25.285Z,89.90
2022-10-12T03:17:57.757Z,85.40
2022-10-12T03:20:31.398Z,83.40
2022-10-12T03:23:07.424Z,85.90
2022-10-12T03:25:41.332Z,94.40
2022-10-12T03:28:13.590Z,82.90
2022-10-12T03:30:47.865Z,85.10
2022-10-12T03:33:21.383Z,81.60
2022-10-12T03:35:54.551Z,75.00
2022-10-12T03:38:27.463Z,73.90
2022-10-12T03:41:05.697Z,78.20
2022-10-12T03:43:40.747Z,78.20
2022-10-12T03:46:14.132Z,77.30
2022-10-12T03:48:48.230Z,83.60
2022-10-12T03:51:23.106Z,75.40
2022-10-12T03:53:55.712Z,73.30
2022-10-12T03:56:28.023Z,76.30
2022-10-12T03:59:00.884Z,73.00
2022-10-12T04:01:35.772Z,72.60
2022-10-12T04:04:09.147Z,76.50
2022-10-12T04:06:44.971Z,76.20
2022-10-12T04:09:19.630Z,81.80
2022-10-12T04:11:55.167Z,79.90
2022-10-12T04:14:27.306Z,83.40
2022-10-12T04:17:03.471Z,79.80
2022-10-12T04:19:37.376Z,87.30
2022-10-12T04:22:12.512Z,96.60
2022-10-12T04:24:44.305Z,104.60
2022-10-12T04:27:16.135Z,114.30
2022-10-12T04:29:49.877Z,109.00
2022-10-12T04:32:23.233Z,116.90
2022-10-12T04:35:01.856Z,117.90
2022-10-12T04:37:34.457Z,112.70
2022-10-12T04:40:07.939Z,111.80
2022-10-12T04:42:43.646Z,109.20
2022-10-12T04:45:16.668Z,103.90
2022-10-12T04:47:51.228Z,103.90
2022-10-12T04:50:27.499Z,109.40
2022-10-12T04:53:02.032Z,114.60
2022-10-12T04:55:34.767Z,117.00
2022-10-12T04:58:06.689Z,118.40
2022-10-12T05:00:39.404Z,130.30
2022-10-12T05:03:13.285Z,132.80
2022-10-12T05:05:47.489Z,142.10
2022-10-12T05:08:21.874Z,129.10
2022-10-12T05:10:56.431Z,130.40
2022-10-12T05:13:29.050Z,131.10
2022-10-12T05:16:02.340Z,127.30
2022-10-12T05:18:34.605Z,130.40
2022-10-12T05:21:08.972Z,112.90
2022-10-12T05:23:40.998Z,125.60
2022-10-12T05:26:16.058Z,110.10
2022-10-12T05:28:48.499Z,116.50
2022-10-12T05:31:24.517Z,106.00
2022-10-12T05:33:57.799Z,104.40
2022-10-12T05:36:30.338Z,105.50
2022-10-12T05:39:03.653Z,101.70
2022-10-12T05:41:37.841Z,103.50
2022-10-12T05:44:11.961Z,105.80
2022-10-12T05:46:46.625Z,102.30
2022-10-12T05:49:19.353Z,98.50
2022-10-12T05:51:54.522Z,93.70
2022-10-12T05:54:28.371Z,94.00
2022-10-12T05:57:00.750Z,87.10
2022-10-12T05:59:33.446Z,96.50
2022-10-12T06:02:07.376Z,90.60
2022-10-12T06:04:40.888Z,87.00
2022-10-12T06:07:13.442Z,79.10
2022-10-12T06:09:48.511Z,75.50
2022-10-12T06:12:20.811Z,72.90
2022-10-12T06:14:54.323Z,76.60
2022-10-12T06:17:29.193Z,79.80
2022-10-12T06:20:04.233Z,78.00
2022-10-12T06:22:37.730Z,74.50
2022-10-12T06:25:11.255Z,74.10
2022-10-12T06:27:44.084Z,71.80
2022-10-12T06:30:16.278Z,69.00
2022-10-12T06:32:51.565Z,74.40
2022-10-12T06:35:23.785Z,68.30
2022-10-12T06:37:56.603Z,67.00
2022-10-12T06:40:32.242Z,69.70
2022-10-12T06:43:05.036Z,69.00
2022-10-12T06:45:39.776Z,71.90
2022-10-12T06:48:18.586Z,81.40
2022-10-12T06:50:54.589Z,78.00
2022-10-12T06:53:31.374Z,74.90
2022-10-12T06:56:04.193Z,107.30
2022-10-12T06:58:38.388Z,73.40
2022-10-12T07:01:12.434Z,64.80
2022-10-12T07:03:44.380Z,88.30
2022-10-12T07:06:16.833Z,65.40
2022-10-12T07:08:49.179Z,70.30
2022-10-12T07:11:21.168Z,60.10
2022-10-12T07:13:54.162Z,87.00
2022-10-12T07:16:28.725Z,63.70
2022-10-12T07:19:01.815Z,62.10
2022-10-12T07:21:34.989Z,59.50
2022-10-12T07:24:09.627Z,63.10
2022-10-12T07:26:43.714Z,67.00
2022-10-12T07:29:20.010Z,69.80
2022-10-12T07:31:53.190Z,57.90
2022-10-12T07:34:31.050Z,57.00
2022-10-12T07:37:03.699Z,59.90
2022-10-12T07:39:37.054Z,57.20
2022-10-12T07:42:16.855Z,57.20
2022-10-12T07:44:54.180Z,57.60
2022-10-12T07:47:54.088Z,60.20
2022-10-12T07:50:31.067Z,61.80
2022-10-12T07:53:07.459Z,58.90
2022-10-12T07:55:45.379Z,60.60
2022-10-12T07:58:19.878Z,59.10
2022-10-12T08:00:53.738Z,59.30
2022-10-12T08:03:27.897Z,63.50
2022-10-12T08:06:04.212Z,54.70
2022-10-12T08:08:40.024Z,51.10
2022-10-12T08:11:41.993Z,51.20
2022-10-12T08:14:21.687Z,57.60
2022-10-12T08:16:59.051Z,52.40
2022-10-12T08:19:40.506Z,54.00
2022-10-12T08:22:18.738Z,51.30
2022-10-12T08:24:57.012Z,55.80
2022-10-12T08:27:34.382Z,52.70
2022-10-12T08:30:13.743Z,49.30
2022-10-12T08:32:46.792Z,50.30
2022-10-12T08:35:22.501Z,50.50
2022-10-12T08:37:56.035Z,45.20
2022-10-12T08:40:35.645Z,48.40
2022-10-12T08:43:20.599Z,39.90
2022-10-12T08:45:59.061Z,34.60
2022-10-12T08:49:03.810Z,30.40
2022-10-12T08:51:49.113Z,26.90
2022-10-12T08:54:32.952Z,24.90
2022-10-12T08:57:15.495Z,24.30
2022-10-12T08:59:52.967Z,18.70
2022-10-12T09:02:46.407Z,18.70
2022-10-12T09:05:49.703Z,20.90
2022-10-12T09:08:38.858Z,17.00
2022-10-12T09:11:32.568Z,15.90
2022-10-12T09:14:32.977Z,16.20
2022-10-12T09:24:26.293Z,13.40
2022-10-12T09:27:30.681Z,12.20
2022-10-12T09:30:09.402Z,9.20
2022-10-12T09:33:09.623Z,10.60
2022-10-12T09:35:52.127Z,10.30
2022-10-12T09:42:15.438Z,9.50
2022-10-12T09:44:55.413Z,16.60
2022-10-12T09:50:46.837Z,12.60
2022-10-12T09:53:35.318Z,9.80
2022-10-12T09:56:38.062Z,9.10
2022-10-12T10:02:58.125Z,7.50
2022-10-12T10:05:35.113Z,6.60
2022-10-12T10:14:48.984Z,6.70
2022-10-12T10:17:57.747Z,8.80
2022-10-12T10:21:00.088Z,11.30
2022-10-12T10:24:03.938Z,9.60
2022-10-12T10:27:24.086Z,10.20
2022-10-12T10:30:29.613Z,10.50
2022-10-12T10:33:28.219Z,8.10
2022-10-12T10:36:46.981Z,9.00
2022-10-12T10:39:29.934Z,9.50
2022-10-12T10:42:21.228Z,9.40
2022-10-12T10:45:03.158Z,8.70
2022-10-12T10:47:51.506Z,11.80
2022-10-12T10:50:37.591Z,10.60
2022-10-12T10:53:19.438Z,6.90
2022-10-12T10:56:00.206Z,14.00
2022-10-12T10:58:40.067Z,9.30
2022-10-12T11:01:45.738Z,8.50
2022-10-12T11:04:48.570Z,11.70
2022-10-12T11:07:32.720Z,14.80
2022-10-12T11:10:24.798Z,9.20
2022-10-12T11:13:06.540Z,14.60
2022-10-12T11:19:00.837Z,7.70
2022-10-12T11:21:51.936Z,7.80
2022-10-12T11:24:33.004Z,19.80
2022-10-12T11:27:18.802Z,12.70
2022-10-12T11:30:09.448Z,8.00
2022-10-12T11:32:48.151Z,6.60
2022-10-12T11:35:31.103Z,7.10
2022-10-12T11:38:06.574Z,6.20
2022-10-12T11:43:45.043Z,6.50
2022-10-12T11:46:29.945Z,7.50
2022-10-12T11:49:32.776Z,8.90
2022-10-12T11:52:12.514Z,7.40
2022-10-12T11:54:56.458Z,8.80
2022-10-12T11:57:53.451Z,8.00
2022-10-12T12:00:59.006Z,8.60
2022-10-12T12:03:41.346Z,8.20
2022-10-12T12:10:53.724Z,7.50
2022-10-12T12:13:56.997Z,12.60
2022-10-12T12:16:50.274Z,6.20
2022-10-12T12:20:16.318Z,7.10
2022-10-12T12:22:58.917Z,6.50
2022-10-12T12:26:04.435Z,8.30
2022-10-12T12:29:05.350Z,10.10
2022-10-12T12:31:44.347Z,7.00
2022-10-12T12:34:19.354Z,7.30
2022-10-12T12:51:45.197Z,6.10
2022-10-12T12:54:33.897Z,9.40
2022-10-12T13:01:00.821Z,11.10
2022-10-12T13:08:22.049Z,10.70
2022-10-12T13:15:24.039Z,6.50
2022-10-12T13:18:45.785Z,6.50
2022-10-12T13:21:26.484Z,12.90
2022-10-12T13:24:18.482Z,13.90
2022-10-12T13:27:41.378Z,7.10
2022-10-12T13:30:28.838Z,7.20
2022-10-12T13:33:17.586Z,6.40
2022-10-12T13:36:05.783Z,8.90
2022-10-12T13:39:49.861Z,6.40
2022-10-12T13:42:30.018Z,5.10
2022-10-12T13:51:38.057Z,6.10
2022-10-12T13:54:40.110Z,6.10
2022-10-12T13:57:24.060Z,7.10
2022-10-12T14:00:29.210Z,5.50
2022-10-12T14:06:42.887Z,6.10
2022-10-12T14:09:23.103Z,9.80
2022-10-12T14:12:04.189Z,5.80
2022-10-12T14:14:47.120Z,12.60
2022-10-12T14:17:29.235Z,16.20
2022-10-12T14:20:24.004Z,9.30
2022-10-12T14:23:02.352Z,13.70
2022-10-12T14:26:01.155Z,8.30
2022-10-12T14:28:38.551Z,7.20
2022-10-12T14:31:12.019Z,5.50
2022-10-12T14:33:50.199Z,20.40
2022-10-12T14:36:30.781Z,6.60
2022-10-12T14:39:30.961Z,5.10
2022-10-12T14:45:29.670Z,7.30
2022-10-12T14:48:14.363Z,7.80
2022-10-12T14:50:52.813Z,7.00
2022-10-12T14:57:33.319Z,6.10
2022-10-12T15:00:38.333Z,7.90
2022-10-12T15:03:20.212Z,7.40
2022-10-12T15:05:56.985Z,6.40
2022-10-12T15:08:32.856Z,7.00
2022-10-12T15:11:42.706Z,7.90
2022-10-12T15:14:51.903Z,9.10
2022-10-12T15:17:25.665Z,7.40
2022-10-12T15:20:08.614Z,7.70
2022-10-12T15:23:08.111Z,7.10
2022-10-12T15:26:19.610Z,10.10
2022-10-12T15:33:31.567Z,8.60
2022-10-12T15:40:00.502Z,6.80
2022-10-12T15:42:40.054Z,8.20
2022-10-12T15:46:02.936Z,9.60
2022-10-12T15:49:01.382Z,11.50
2022-10-12T15:54:48.948Z,8.20
2022-10-12T15:57:24.845Z,13.00
2022-10-12T16:00:24.127Z,9.60
2022-10-12T16:03:26.415Z,9.30
2022-10-12T16:10:20.318Z,11.80
2022-10-12T16:12:58.082Z,11.90
2022-10-12T16:16:00.695Z,13.60
2022-10-12T16:18:47.891Z,12.10
2022-10-12T16:21:53.745Z,12.80
2022-10-12T16:24:30.337Z,11.10
2022-10-12T16:27:57.867Z,15.40
2022-10-12T16:30:30.954Z,18.40
2022-10-12T16:33:29.323Z,17.10
2022-10-12T16:43:17.134Z,16.50
2022-10-12T16:46:02.945Z,17.40
2022-10-12T16:48:40.990Z,15.20
2022-10-12T16:51:19.759Z,19.00
2022-10-12T16:57:40.369Z,18.30
2022-10-12T17:00:22.597Z,18.60
2022-10-12T17:03:42.268Z,19.60
2022-10-12T17:06:21.360Z,19.20
2022-10-12T17:08:58.991Z,23.90
2022-10-12T17:12:00.757Z,20.30
2022-10-12T17:14:41.397Z,21.50
2022-10-12T17:18:02.010Z,23.00
2022-10-12T17:20:37.167Z,26.00
2022-10-12T17:23:41.807Z,34.70
2022-10-12T17:27:08.917Z,37.20
2022-10-12T17:30:15.021Z,31.50
2022-10-12T17:32:54.160Z,31.80
2022-10-12T17:35:28.604Z,27.70
2022-10-12T17:38:30.028Z,27.30
2022-10-12T17:44:56.974Z,28.00
2022-10-12T17:47:31.161Z,28.60
2022-10-12T17:50:04.328Z,30.10
2022-10-12T17:52:42.359Z,32.90
2022-10-12T17:55:43.371Z,32.00
2022-10-12T18:05:05.110Z,32.50
2022-10-12T18:07:42.120Z,30.20
2022-10-12T18:11:31.318Z,35.60
2022-10-12T18:14:58.960Z,33.30
2022-10-12T18:17:34.596Z,33.10
2022-10-12T18:20:14.011Z,35.20
2022-10-12T18:27:23.392Z,35.80
2022-10-12T18:30:25.593Z,37.00
2022-10-12T18:33:04.052Z,39.10
2022-10-12T18:35:43.489Z,36.90
2022-10-12T18:42:03.767Z,41.40
2022-10-12T18:45:29.561Z,50.20
2022-10-12T18:48:08.401Z,56.30
2022-10-12T18:51:11.795Z,98.80
2022-10-12T18:53:54.438Z,94.90
2022-10-12T18:56:37.573Z,88.70
2022-10-12T18:59:13.203Z,88.00
2022-10-12T19:01:50.694Z,79.90
2022-10-12T19:04:26.869Z,77.00
2022-10-12T19:07:28.173Z,82.60
2022-10-12T19:11:15.085Z,70.30
2022-10-12T19:14:40.532Z,76.80
2022-10-12T19:17:38.495Z,72.60
2022-10-12T19:20:40.047Z,80.20
2022-10-12T19:23:21.402Z,74.70
2022-10-12T19:33:28.490Z,82.30
2022-10-12T19:36:40.816Z,78.70
2022-10-12T19:40:07.649Z,87.00
2022-10-12T19:42:43.402Z,83.40
2022-10-12T19:45:25.079Z,79.70
2022-10-12T19:51:26.214Z,114.60
2022-10-12T19:57:38.802Z,72.10
2022-10-12T20:00:27.028Z,69.50
2022-10-12T20:03:02.445Z,71.60
2022-10-12T20:05:39.952Z,74.90
2022-10-12T20:09:09.188Z,78.90
2022-10-12T20:11:50.619Z,88.60
2022-10-12T20:14:53.539Z,82.40
2022-10-12T20:17:50.467Z,82.40
2022-10-12T20:20:27.231Z,82.50
2022-10-12T20:23:02.319Z,93.20
2022-10-12T20:26:01.598Z,90.60
2022-10-12T20:32:45.233Z,99.40
2022-10-12T20:35:19.812Z,93.80
2022-10-12T20:38:18.095Z,97.70
2022-10-12T20:45:17.101Z,176.10
2022-10-12T20:47:52.954Z,222.00
2022-10-12T20:54:07.333Z,156.70
2022-10-12T21:09:19.895Z,146.70
2022-10-12T21:11:56.291Z,180.30
2022-10-12T21:14:58.792Z,160.40
2022-10-12T21:17:57.837Z,229.60
2022-10-12T21:20:38.714Z,236.60
2022-10-12T21:24:25.253Z,248.10
2022-10-12T21:27:51.065Z,235.80
2022-10-12T21:30:24.410Z,218.00
2022-10-12T21:32:59.925Z,221.60
2022-10-12T21:35:34.654Z,209.30
2022-10-12T21:38:35.591Z,191.20
2022-10-12T21:41:59.288Z,171.90
2022-10-12T21:45:07.146Z,171.40
2022-10-12T21:47:43.130Z,185.80
2022-10-12T21:51:29.228Z,181.70
2022-10-12T21:54:29.425Z,228.30
2022-10-12T21:57:04.951Z,222.90
2022-10-12T22:00:09.124Z,216.70
2022-10-12T22:02:47.406Z,269.40
2022-10-12T22:05:25.493Z,287.40
2022-10-12T22:11:50.025Z,218.40
2022-10-12T22:14:24.987Z,180.60
2022-10-12T22:17:47.031Z,180.60
2022-10-12T22:21:07.805Z,153.00
2022-10-12T22:23:42.410Z,129.50
2022-10-12T22:26:23.388Z,127.10
2022-10-12T22:29:07.065Z,131.20
2022-10-12T22:31:47.955Z,125.30
2022-10-12T22:34:26.765Z,138.90
2022-10-12T22:44:03.420Z,125.50
2022-10-12T22:46:40.372Z,123.40
2022-10-12T22:50:03.461Z,125.10
2022-10-12T22:53:04.789Z,130.70
2022-10-12T22:56:05.621Z,117.50
2022-10-12T22:58:49.073Z,120.40
2022-10-12T23:01:27.110Z,116.50
2022-10-12T23:03:59.984Z,123.70
2022-10-12T23:10:44.936Z,136.80
2022-10-12T23:13:44.422Z,130.50
2022-10-12T23:16:25.239Z,148.80
2022-10-12T23:19:04.998Z,145.30
2022-10-12T23:21:39.334Z,135.60
2022-10-12T23:24:13.094Z,121.90
2022-10-12T23:26:51.917Z,124.70
2022-10-12T23:29:29.706Z,121.50
2022-10-12T23:32:11.220Z,123.10
2022-10-12T23:34:48.174Z,113.50
2022-10-12T23:38:16.695Z,119.30
2022-10-12T23:40:51.000Z,139.30
2022-10-12T23:43:54.619Z,120.80
2022-10-12T23:50:48.925Z,114.00
2022-10-12T23:53:23.733Z,106.10
2022-10-12T23:56:22.004Z,104.60
